KFLY

Meadow Lake Airport

Colorado Springs, Colorado, USA
METAR KFLY 170015Z AUTO 36007KT 10SM CLR 01/M13 A2983 RMK AO2 T00051130
Observed Flight Rules
Dec-17 @ 00:15 UTC (18 minutes ago) Visual Flight Rules
Wind Visibility Clouds
360° at 7 knots 10 miles
  • Clear skies
Temperatures Readings
Current 1°C / 34°F
Dewpoint -13°C / 9°F
Humidity 35%
Altimeter 29.83" Hg
Pressure 1010 hPa
Elevation 2096
METAR KFLY 170015Z AUTO 36007KT 10SM CLR 01/M13 A2983 RMK AO2 T00051130
Observed Flight Rules
Dec-17 @ 00:15 UTC
(18 minutes ago)
VFR
Wind Visibility
360° at 7 knots 10 miles
Clouds
  • Clear skies
Temperature Dewpoint
1°C / 34°F -13°C / 9°F
Humidity Altimeter Pressure
35% 29.83" Hg 1010 hPa